createdAt,value
2023-03-30T07:18:25.452Z,13.41
2023-03-30T07:38:48.562Z,14.07
2023-03-30T07:41:22.628Z,13.84
2023-03-30T07:44:05.885Z,14.35
2023-03-30T07:46:38.432Z,13.98
2023-03-30T07:49:17.541Z,13.91
2023-03-30T07:51:51.600Z,14.14
2023-03-30T07:54:22.241Z,14.15
2023-03-30T07:57:09.087Z,13.76
2023-03-30T08:05:27.984Z,14.26
2023-03-30T08:08:11.597Z,14.38
2023-03-30T08:10:52.747Z,13.85
2023-03-30T08:16:22.899Z,13.76
2023-03-30T08:21:42.049Z,13.98
2023-03-30T08:24:12.309Z,14.15
2023-03-30T08:27:01.227Z,14.45
2023-03-30T08:29:34.765Z,14.44
2023-03-30T08:32:09.096Z,14.30
2023-03-30T08:37:54.885Z,14.78
2023-03-30T08:40:39.965Z,14.14
2023-03-30T08:44:03.389Z,14.75
2023-03-30T09:18:53.340Z,15.97
2023-03-30T09:21:35.000Z,15.39
2023-03-30T09:24:33.233Z,15.65
2023-03-30T09:27:34.021Z,16.07
2023-03-30T09:30:35.347Z,15.80
2023-03-30T09:36:41.388Z,15.78
2023-03-30T09:39:33.641Z,15.75
2023-03-30T09:42:41.905Z,15.84
2023-03-30T09:45:46.645Z,15.88
2023-03-30T09:48:21.249Z,15.90
2023-03-30T09:51:05.401Z,15.94
2023-03-30T09:57:01.261Z,15.99
2023-03-30T10:51:23.267Z,16.80
2023-03-30T11:09:25.777Z,17.52
2023-03-30T11:21:55.888Z,17.30
2023-03-30T11:24:26.947Z,18.13
2023-03-30T11:27:03.820Z,17.94
2023-03-30T11:29:59.602Z,17.91
2023-03-30T11:32:47.777Z,17.97
2023-03-30T11:35:28.298Z,18.21
2023-03-30T11:38:21.575Z,17.91
2023-03-30T11:41:06.091Z,18.35
2023-03-30T11:43:49.755Z,17.60
2023-03-30T11:52:58.248Z,17.21
2023-03-30T11:55:47.989Z,16.95
2023-03-30T12:01:34.073Z,17.06
2023-03-30T12:07:28.852Z,17.76
2023-03-30T12:10:03.349Z,17.35
2023-03-30T12:12:39.592Z,17.56
2023-03-30T12:15:26.797Z,17.49
2023-03-30T12:18:21.574Z,17.87
2023-03-30T12:21:00.115Z,17.63
2023-03-30T12:23:41.096Z,16.85
2023-03-30T12:30:03.073Z,16.08
2023-03-30T12:37:38.411Z,15.61
2023-03-30T12:40:20.959Z,15.62
2023-03-30T12:43:03.169Z,15.69
2023-03-30T12:45:36.498Z,16.21
2023-03-30T12:48:28.994Z,16.62
2023-03-30T12:51:11.870Z,16.79
2023-03-30T12:54:15.633Z,17.34
2023-03-30T13:08:41.357Z,15.51
2023-03-30T13:11:20.242Z,13.93
2023-03-30T13:17:16.203Z,13.27
2023-03-30T13:19:50.113Z,13.49
2023-03-30T13:22:33.092Z,13.80
2023-03-30T13:25:28.182Z,14.00
2023-03-30T13:28:01.356Z,13.76
2023-03-30T13:30:31.256Z,14.45
2023-03-30T13:33:12.655Z,14.15
2023-03-30T13:35:59.306Z,14.21
2023-03-30T13:39:06.842Z,14.23
2023-03-30T13:41:56.123Z,14.36
2023-03-30T13:44:47.831Z,14.21
2023-03-30T13:47:33.738Z,14.16
2023-03-30T13:50:04.610Z,14.26
2023-03-30T13:52:38.256Z,14.31
2023-03-30T13:55:18.036Z,14.20
2023-03-30T13:57:48.797Z,14.32
2023-03-30T14:00:33.451Z,14.12
2023-03-30T14:03:45.271Z,14.45
2023-03-30T14:06:19.422Z,14.80
2023-03-30T14:08:54.620Z,15.31
2023-03-30T14:11:29.624Z,15.74
2023-03-30T14:14:05.879Z,15.57
2023-03-30T14:16:42.810Z,15.49
2023-03-30T14:19:27.828Z,15.10
2023-03-30T14:22:15.560Z,15.42
2023-03-30T14:25:09.969Z,15.02
2023-03-30T14:27:46.739Z,15.15
2023-03-30T14:30:26.224Z,14.61
2023-03-30T14:33:15.075Z,14.94
2023-03-30T14:35:51.914Z,14.87
2023-03-30T14:44:41.821Z,14.37
2023-03-30T14:47:16.624Z,14.21
2023-03-30T14:49:48.580Z,14.21
2023-03-30T17:01:18.944Z,15.12
2023-03-30T17:03:49.378Z,15.05
2023-03-30T17:13:03.790Z,14.69
2023-03-30T17:15:35.114Z,14.53
2023-03-30T17:18:06.413Z,14.58
2023-03-30T17:20:41.679Z,14.34
2023-03-30T17:23:12.579Z,14.79
2023-03-30T17:25:41.932Z,14.70
2023-03-30T17:28:18.318Z,14.60
2023-03-30T17:30:49.842Z,14.27
2023-03-30T17:33:20.880Z,14.51
2023-03-30T17:35:54.965Z,14.40
2023-03-30T17:38:25.105Z,14.21
2023-03-30T17:40:54.479Z,14.25
2023-03-30T17:43:31.401Z,14.40
2023-03-30T17:46:01.726Z,14.38
2023-03-30T17:48:31.638Z,14.29
2023-03-30T17:51:09.488Z,14.31
2023-03-30T17:53:37.879Z,14.31
2023-03-30T17:56:07.130Z,14.30
2023-03-30T17:58:38.227Z,14.14
2023-03-30T18:01:10.317Z,14.32
2023-03-30T18:03:40.404Z,14.26
2023-03-30T18:06:08.768Z,14.39
2023-03-30T18:08:37.848Z,14.19
2023-03-30T18:11:08.069Z,14.12
2023-03-30T18:13:38.445Z,14.12
2023-03-30T18:16:07.833Z,13.74
2023-03-30T18:18:36.953Z,14.23
2023-03-30T18:21:13.974Z,13.81
2023-03-30T18:23:43.838Z,14.13
2023-03-30T18:26:16.561Z,14.04
2023-03-30T18:28:47.619Z,14.15
2023-03-30T18:31:19.098Z,14.21
2023-03-30T18:33:47.401Z,14.00
2023-03-30T18:36:18.325Z,14.29
2023-03-30T18:38:48.470Z,14.21
2023-03-30T18:41:16.491Z,13.96
2023-03-30T18:43:45.646Z,14.27
2023-03-30T18:46:16.545Z,14.07
2023-03-30T18:48:47.118Z,14.01
2023-03-30T18:51:16.831Z,14.22
2023-03-30T18:53:47.331Z,14.19
2023-03-30T18:56:18.197Z,14.32
2023-03-30T18:58:46.737Z,14.20
2023-03-30T19:01:16.599Z,14.32
2023-03-30T19:03:45.876Z,14.26
2023-03-30T19:06:21.641Z,13.98
2023-03-30T19:08:50.310Z,14.24
2023-03-30T19:11:21.786Z,14.22
2023-03-30T19:13:50.019Z,13.92
2023-03-30T19:16:26.618Z,13.66
2023-03-30T19:18:56.167Z,13.97
2023-03-30T19:21:27.690Z,14.29
2023-03-30T19:23:58.218Z,14.18
2023-03-30T19:26:29.771Z,14.19
2023-03-30T19:29:07.837Z,14.09
2023-03-30T19:31:57.287Z,14.17
2023-03-30T19:34:25.704Z,13.72
2023-03-30T19:36:57.337Z,13.78
2023-03-30T19:39:25.709Z,14.15
2023-03-30T19:41:54.080Z,14.19
2023-03-30T19:44:22.092Z,13.77
2023-03-30T19:46:51.549Z,14.01
2023-03-30T19:49:19.752Z,14.00
2023-03-30T19:51:49.084Z,13.78
2023-03-30T19:54:21.610Z,13.73
2023-03-30T19:56:51.859Z,13.77
2023-03-30T19:59:21.068Z,13.54
2023-03-30T20:01:49.403Z,13.65
2023-03-30T20:04:17.498Z,13.68
2023-03-30T20:06:45.888Z,13.56
2023-03-30T20:09:13.978Z,13.48
2023-03-30T20:11:45.896Z,13.53
2023-03-30T20:14:16.454Z,13.52
2023-03-30T20:16:44.429Z,13.65
2023-03-30T20:19:28.448Z,13.59
2023-03-30T20:21:58.160Z,13.55
2023-03-30T20:24:31.843Z,13.53
2023-03-30T20:27:01.451Z,13.48
2023-03-30T20:29:29.807Z,13.55
2023-03-30T20:31:58.493Z,13.57
2023-03-30T20:34:34.780Z,13.69
2023-03-30T20:37:03.805Z,13.60
2023-03-30T20:39:34.330Z,13.74
2023-03-30T20:42:08.621Z,13.68
2023-03-30T20:44:42.009Z,13.57
2023-03-30T20:47:12.356Z,13.33
2023-03-30T20:49:43.861Z,13.60
2023-03-30T20:52:13.523Z,13.40
2023-03-30T20:54:46.981Z,13.50
2023-03-30T20:57:17.211Z,13.52
2023-03-30T20:59:48.441Z,13.50
2023-03-30T21:02:19.198Z,13.40
2023-03-30T21:04:48.936Z,13.37
2023-03-30T21:07:24.550Z,12.91
2023-03-30T21:09:59.886Z,13.34
2023-03-30T21:12:29.913Z,13.31
2023-03-30T21:14:58.062Z,13.41
2023-03-30T21:17:33.650Z,13.28
2023-03-30T21:20:02.378Z,13.44
2023-03-30T21:22:32.153Z,13.35
2023-03-30T21:25:01.826Z,13.37
2023-03-30T21:27:33.076Z,13.35
2023-03-30T21:30:02.082Z,13.33
2023-03-30T21:32:33.403Z,13.24
2023-03-30T21:35:01.944Z,13.43
2023-03-30T21:37:31.666Z,13.19
2023-03-30T21:40:00.005Z,13.13
2023-03-30T21:42:34.961Z,13.27
2023-03-30T21:45:10.713Z,13.32
2023-03-30T21:47:39.209Z,13.34
2023-03-30T21:50:09.784Z,13.23
2023-03-30T21:52:38.279Z,12.95
2023-03-30T21:55:09.354Z,13.25
2023-03-30T21:57:39.379Z,13.30
2023-03-30T22:00:10.309Z,13.22
2023-03-30T22:02:38.746Z,13.40
2023-03-30T22:05:11.993Z,13.09
2023-03-30T22:07:40.869Z,13.23
2023-03-30T22:10:14.171Z,12.97
2023-03-30T22:12:45.109Z,13.38
2023-03-30T22:15:15.588Z,13.24
2023-03-30T22:17:46.099Z,13.01
2023-03-30T22:20:18.285Z,13.24
2023-03-30T22:22:47.128Z,13.06
2023-03-30T22:25:17.467Z,13.36
2023-03-30T22:27:47.483Z,13.26
2023-03-30T22:30:17.637Z,13.13
2023-03-30T22:32:48.768Z,13.26
2023-03-30T22:35:21.865Z,13.14
2023-03-30T22:37:50.030Z,12.99
2023-03-30T22:40:18.687Z,13.05
2023-03-30T22:42:49.069Z,13.00
2023-03-30T22:45:17.534Z,12.81
2023-03-30T22:47:46.945Z,13.09
2023-03-30T22:50:15.068Z,13.21
2023-03-30T22:52:44.364Z,12.99
2023-03-30T22:55:15.490Z,12.91
2023-03-30T22:57:46.667Z,12.93
2023-03-30T23:00:19.039Z,12.89
2023-03-30T23:02:49.240Z,12.89
2023-03-30T23:05:21.279Z,13.00
2023-03-30T23:07:51.504Z,12.68
2023-03-30T23:10:23.061Z,12.92
2023-03-30T23:12:52.366Z,12.92
2023-03-30T23:15:22.573Z,12.90
2023-03-30T23:17:51.122Z,12.51
2023-03-30T23:20:23.031Z,13.08
2023-03-30T23:22:51.828Z,12.93
2023-03-30T23:25:20.848Z,12.63
2023-03-30T23:27:52.023Z,12.92
2023-03-30T23:30:32.235Z,12.66
2023-03-30T23:33:00.406Z,12.97
2023-03-30T23:35:32.256Z,12.94
2023-03-30T23:38:01.149Z,12.94
2023-03-30T23:40:30.438Z,12.65
2023-03-30T23:42:58.925Z,13.03
2023-03-30T23:45:37.803Z,12.63
2023-03-30T23:48:06.226Z,12.69
2023-03-30T23:50:36.542Z,12.79
2023-03-30T23:53:07.716Z,12.77
2023-03-30T23:55:36.241Z,12.77
2023-03-30T23:58:04.746Z,12.82
